createdAt,value
2023-05-05T00:01:31.318Z,99.90
2023-05-05T00:06:32.928Z,99.90
2023-05-05T00:11:34.591Z,99.90
2023-05-05T00:16:36.333Z,99.90
2023-05-05T00:21:37.925Z,99.90
2023-05-05T00:26:39.801Z,99.90
2023-05-05T00:31:41.281Z,99.90
2023-05-05T00:36:42.974Z,99.90
2023-05-05T00:41:44.595Z,99.90
2023-05-05T00:46:46.211Z,99.90
2023-05-05T00:51:47.893Z,99.90
2023-05-05T00:56:49.656Z,99.90
2023-05-05T01:01:51.369Z,99.90
2023-05-05T01:06:52.988Z,99.90
2023-05-05T01:11:54.657Z,99.90
2023-05-05T01:16:56.321Z,99.90
2023-05-05T01:22:00.355Z,99.90
2023-05-05T01:27:02.104Z,99.90
2023-05-05T01:32:03.828Z,99.90
2023-05-05T01:37:05.451Z,99.90
2023-05-05T01:42:07.124Z,99.90
2023-05-05T01:47:08.841Z,99.90
2023-05-05T01:52:10.482Z,99.90
2023-05-05T01:57:12.155Z,99.90
2023-05-05T02:02:13.829Z,99.90
2023-05-05T02:07:15.531Z,99.90
2023-05-05T02:12:17.129Z,99.90
2023-05-05T02:17:18.887Z,99.90
2023-05-05T02:22:20.499Z,99.90
2023-05-05T02:27:21.941Z,99.90
2023-05-05T02:32:23.609Z,99.90
2023-05-05T02:37:25.334Z,99.90
2023-05-05T02:42:26.859Z,99.90
2023-05-05T02:47:28.609Z,99.90
2023-05-05T02:52:30.218Z,99.90
2023-05-05T02:57:31.872Z,99.90
2023-05-05T03:02:33.641Z,99.90
2023-05-05T03:07:35.235Z,99.90
2023-05-05T03:12:36.739Z,99.90
2023-05-05T03:17:38.244Z,99.90
2023-05-05T03:22:39.960Z,99.90
2023-05-05T03:27:41.477Z,99.90
2023-05-05T03:32:42.981Z,99.90
2023-05-05T03:37:44.656Z,99.90
2023-05-05T03:42:46.107Z,99.90
2023-05-05T03:47:47.603Z,99.90
2023-05-05T03:52:49.198Z,99.90
2023-05-05T03:57:50.785Z,99.90
2023-05-05T04:02:52.472Z,99.90
2023-05-05T04:07:54.056Z,99.90
2023-05-05T04:12:55.971Z,99.90
2023-05-05T04:17:57.729Z,99.90
2023-05-05T04:22:59.244Z,99.90
2023-05-05T04:28:00.711Z,99.90
2023-05-05T04:33:02.525Z,99.90
2023-05-05T04:38:04.127Z,99.90
2023-05-05T04:43:05.787Z,99.90
2023-05-05T04:48:07.467Z,99.90
2023-05-05T04:53:09.285Z,99.90
2023-05-05T04:58:10.829Z,99.90
2023-05-05T05:03:12.701Z,99.90
2023-05-05T05:08:14.462Z,99.90
2023-05-05T05:13:16.343Z,99.90
2023-05-05T05:18:18.093Z,99.90
2023-05-05T05:23:19.865Z,99.90
2023-05-05T05:28:21.414Z,99.90
2023-05-05T05:33:23.103Z,99.90
2023-05-05T05:38:24.732Z,99.90
2023-05-05T05:43:26.399Z,99.90
2023-05-05T05:48:28.312Z,99.90
2023-05-05T05:53:30.048Z,99.90
2023-05-05T05:58:31.742Z,99.90
2023-05-05T06:03:33.540Z,99.90
2023-05-05T06:08:35.455Z,99.90
2023-05-05T06:13:37.054Z,99.90
2023-05-05T06:18:38.514Z,99.90
2023-05-05T06:23:40.273Z,99.90
2023-05-05T06:28:41.937Z,99.90
2023-05-05T06:33:43.439Z,99.90
2023-05-05T06:38:45.077Z,99.90
2023-05-05T06:43:46.766Z,99.90
2023-05-05T06:48:48.435Z,99.90
2023-05-05T06:53:49.927Z,99.90
2023-05-05T06:58:51.455Z,99.90
2023-05-05T07:04:11.522Z,99.90
2023-05-05T07:09:14.731Z,99.90
2023-05-05T07:14:17.414Z,99.80
2023-05-05T07:19:19.094Z,98.10
2023-05-05T07:24:20.741Z,97.80
2023-05-05T07:29:22.441Z,96.60
2023-05-05T07:34:24.058Z,96.60
2023-05-05T07:39:25.740Z,95.70
2023-05-05T07:44:27.401Z,93.70
2023-05-05T07:49:47.399Z,92.60
2023-05-05T07:55:07.559Z,91.60
2023-05-05T08:00:27.710Z,91.50
2023-05-05T08:05:49.365Z,90.10
2023-05-05T08:10:52.278Z,90.10
2023-05-05T08:15:54.009Z,87.70
2023-05-05T08:20:55.620Z,84.90
2023-05-05T08:25:57.272Z,85.20
2023-05-05T08:30:58.760Z,84.40
2023-05-05T08:36:00.363Z,81.20
2023-05-05T08:41:02.018Z,79.70
2023-05-05T08:46:03.649Z,77.90
2023-05-05T08:51:05.655Z,78.40
2023-05-05T08:56:07.490Z,76.50
2023-05-05T09:01:09.318Z,76.50
2023-05-05T09:06:10.953Z,76.50
2023-05-05T09:11:12.608Z,76.00
2023-05-05T09:16:14.297Z,75.30
2023-05-05T09:21:15.965Z,75.10
2023-05-05T09:26:17.654Z,75.10
2023-05-05T09:31:19.328Z,76.10
2023-05-05T09:36:20.961Z,73.70
2023-05-05T09:41:22.669Z,73.00
2023-05-05T09:46:24.345Z,70.00
2023-05-05T09:51:25.982Z,69.00
2023-05-05T09:56:27.688Z,70.30
2023-05-05T10:01:29.356Z,70.60
2023-05-05T10:06:30.855Z,70.40
2023-05-05T10:11:38.490Z,69.90
2023-05-05T10:16:40.246Z,70.50
2023-05-05T10:21:42.327Z,68.60
2023-05-05T10:27:12.121Z,68.50
2023-05-05T10:32:53.197Z,68.30
2023-05-05T10:38:00.332Z,69.60
2023-05-05T10:43:23.429Z,68.00
2023-05-05T10:48:51.580Z,68.00
2023-05-05T10:53:56.337Z,67.50
2023-05-05T10:59:00.455Z,67.80
2023-05-05T11:04:02.231Z,67.10
2023-05-05T11:09:29.959Z,66.80
2023-05-05T11:14:54.713Z,69.00
2023-05-05T11:20:15.001Z,68.70
2023-05-05T11:25:48.796Z,68.80
2023-05-05T11:31:08.747Z,67.00
2023-05-05T11:36:33.888Z,68.60
2023-05-05T11:42:10.801Z,68.20
2023-05-05T11:47:48.256Z,69.20
2023-05-05T11:53:03.590Z,66.60
2023-05-05T11:58:16.145Z,66.70
2023-05-05T12:03:21.091Z,67.90
2023-05-05T12:08:41.035Z,69.10
2023-05-05T12:14:09.156Z,66.30
2023-05-05T12:19:25.147Z,66.20
2023-05-05T12:24:46.714Z,65.40
2023-05-05T12:30:09.046Z,66.30
2023-05-05T12:35:29.516Z,65.80
2023-05-05T12:40:49.663Z,65.20
2023-05-05T12:45:51.642Z,65.00
2023-05-05T12:50:53.435Z,63.40
2023-05-05T12:55:55.106Z,65.00
2023-05-05T13:00:56.857Z,63.00
2023-05-05T13:05:58.545Z,64.00
2023-05-05T13:11:00.257Z,62.40
2023-05-05T13:16:01.807Z,62.30
2023-05-05T13:21:03.454Z,61.90
2023-05-05T13:26:05.197Z,62.30
2023-05-05T13:31:06.943Z,64.20
2023-05-05T13:36:08.981Z,64.30
2023-05-05T13:41:10.898Z,64.20
2023-05-05T13:46:19.222Z,64.00
2023-05-05T13:51:21.770Z,64.00
2023-05-05T13:56:23.687Z,63.40
2023-05-05T14:01:25.500Z,65.10
2023-05-05T14:06:27.123Z,64.20
2023-05-05T14:11:29.168Z,62.90
2023-05-05T14:16:30.961Z,62.70
2023-05-05T14:21:32.943Z,63.80
2023-05-05T14:26:34.845Z,66.40
2023-05-05T14:31:36.693Z,66.90
2023-05-05T14:36:38.490Z,66.00
2023-05-05T14:41:40.182Z,67.20
2023-05-05T14:46:43.566Z,67.30
2023-05-05T14:51:47.051Z,67.50
2023-05-05T14:56:48.749Z,68.20
2023-05-05T15:01:50.447Z,68.30
2023-05-05T15:06:52.255Z,68.40
2023-05-05T15:11:54.081Z,67.70
2023-05-05T15:16:56.296Z,67.40
2023-05-05T15:21:58.110Z,68.40
2023-05-05T15:26:59.671Z,67.60
2023-05-05T15:32:01.440Z,68.10
2023-05-05T15:37:03.288Z,68.00
2023-05-05T15:42:05.124Z,68.40
2023-05-05T15:47:06.788Z,68.10
2023-05-05T15:52:08.474Z,69.40
2023-05-05T15:57:09.974Z,69.00
2023-05-05T16:02:11.863Z,67.90
2023-05-05T16:07:13.580Z,67.70
2023-05-05T16:12:15.479Z,68.50
2023-05-05T16:17:17.268Z,68.20
2023-05-05T16:22:19.353Z,69.40
2023-05-05T16:27:20.937Z,69.40
2023-05-05T16:32:22.859Z,69.90
2023-05-05T16:37:24.610Z,70.30
2023-05-05T16:42:26.860Z,70.10
2023-05-05T16:47:28.536Z,69.40
2023-05-05T16:52:30.055Z,70.70
2023-05-05T16:57:31.552Z,70.50
2023-05-05T17:02:33.502Z,70.80
2023-05-05T17:07:35.206Z,71.80
2023-05-05T17:12:36.911Z,71.30
2023-05-05T17:17:39.287Z,71.90
2023-05-05T17:22:42.084Z,73.10
2023-05-05T17:27:43.906Z,72.60
2023-05-05T17:32:45.622Z,72.80
2023-05-05T17:37:47.471Z,72.10
2023-05-05T17:42:49.250Z,72.20
2023-05-05T17:47:51.251Z,72.30
2023-05-05T17:52:53.086Z,72.60
2023-05-05T17:57:54.517Z,73.10
2023-05-05T18:02:56.173Z,73.30
2023-05-05T18:07:57.731Z,73.80
2023-05-05T18:12:59.433Z,74.30
2023-05-05T18:18:01.140Z,74.80
2023-05-05T18:23:02.778Z,75.70
2023-05-05T18:28:04.449Z,76.20
2023-05-05T18:33:06.114Z,77.40
2023-05-05T18:38:08.071Z,79.60
2023-05-05T18:43:09.799Z,82.60
2023-05-05T18:48:30.007Z,85.90
2023-05-05T18:53:31.801Z,87.90
2023-05-05T18:58:33.575Z,89.70
2023-05-05T19:03:35.207Z,90.60
2023-05-05T19:08:36.723Z,90.90
2023-05-05T19:18:39.995Z,91.80
2023-05-05T19:23:41.576Z,92.40
2023-05-05T19:28:43.217Z,92.50
2023-05-05T19:33:49.278Z,92.90
2023-05-05T19:38:51.545Z,93.10
2023-05-05T19:43:55.984Z,93.50
2023-05-05T19:48:57.700Z,93.90
2023-05-05T19:53:59.500Z,94.40
2023-05-05T19:59:01.140Z,94.50
2023-05-05T20:04:02.806Z,94.90
2023-05-05T20:09:04.730Z,95.30
2023-05-05T20:14:06.231Z,95.50
2023-05-05T20:19:08.081Z,95.70
2023-05-05T20:24:09.757Z,95.90
2023-05-05T20:29:11.286Z,96.30
2023-05-05T20:34:12.864Z,96.60
2023-05-05T20:39:14.715Z,96.60
2023-05-05T20:44:16.301Z,97.00
2023-05-05T20:49:18.018Z,97.10
2023-05-05T20:54:19.544Z,97.10
2023-05-05T20:59:21.232Z,97.40
2023-05-05T21:04:24.207Z,97.80
2023-05-05T21:09:25.931Z,97.90
2023-05-05T21:14:27.530Z,98.30
2023-05-05T21:19:29.265Z,98.80
2023-05-05T21:24:31.163Z,99.00
2023-05-05T21:29:32.718Z,99.30
2023-05-05T21:34:34.371Z,99.70
2023-05-05T21:39:35.848Z,99.90
2023-05-05T21:44:37.566Z,99.90
2023-05-05T21:49:39.783Z,99.90
2023-05-05T21:54:42.523Z,99.90
2023-05-05T21:59:44.365Z,99.90
2023-05-05T22:04:45.975Z,99.90
2023-05-05T22:09:48.146Z,99.90
2023-05-05T22:14:49.758Z,99.90
2023-05-05T22:19:51.378Z,99.90
2023-05-05T22:24:53.099Z,99.90
2023-05-05T22:29:54.627Z,99.90
2023-05-05T22:34:56.263Z,99.90
2023-05-05T22:39:58.641Z,99.90
2023-05-05T22:45:00.388Z,99.90
2023-05-05T22:50:02.043Z,99.90
2023-05-05T22:55:03.582Z,99.90
2023-05-05T23:00:05.305Z,99.90
2023-05-05T23:05:07.277Z,99.90
2023-05-05T23:10:09.065Z,99.90
2023-05-05T23:15:10.789Z,99.90
2023-05-05T23:20:12.629Z,99.90
2023-05-05T23:25:14.307Z,99.90
2023-05-05T23:30:15.899Z,99.90
2023-05-05T23:35:17.905Z,99.90
2023-05-05T23:40:20.565Z,99.90
2023-05-05T23:45:22.202Z,99.90
2023-05-05T23:50:23.993Z,99.90
2023-05-05T23:55:25.745Z,99.90
